CheckWX is a tool to help pilots better visualize weather data.  It is not intended as a substitute for an official pre-flight weather briefing.

08:11:39 UTC

UMGG TAF
Gomel Airport
Gomel, Belarus
TAF UMGG 220500Z 2206/2306 34009G14MPS 9999 BKN015 TEMPO 2206/2220 36011G16MPS 2500 -SHSN BLSN BKN015CB BECMG 2220/2222 36006G11MPS SCT015 TEMPO 2220/2306 1200 BR BKN004

Feb-22@
06:00 UTC

Feb-22 @ 06:00 UTC

Feb-22@
20:00 UTC

Feb-22 @ 20:00 UTC

TAF UMGG 220500Z 2206/2306 34009G14MPS 9999 BKN015
Wind
  • 340° at 17 KTS
  • {Gusting to 27 KTS
Cloud Levels
  • Broken at 1,500' AGL

Feb-22@
06:00 UTC

Feb-22 @ 06:00 UTC

Feb-22@
20:00 UTC

Feb-22 @ 20:00 UTC

TEMPO 2206/2220 36011G16MPS 2500 -SHSN BLSN BKN015CB

Temporary

TemporaryChanges expected for less than half the time period

Wind
  • 360° at 21 KTS
  • {Gusting to 31 KTS
Conditions
Light Snow, Blowing Snow
Cloud Levels
  • Broken at 1,500' AGL

Feb-22@
20:00 UTC

Feb-22 @ 20:00 UTC

Feb-23@
06:00 UTC

Feb-23 @ 06:00 UTC

BECMG 2220/2222 36006G11MPS SCT015

Becoming

BecomingConditions expected by Fri, Feb 22, 2019 @ 22:00 UTC

Wind
  • 360° at 12 KTS
  • {Gusting to 21 KTS
Cloud Levels
  • Scattered at 1,500' AGL

Feb-22@
20:00 UTC

Feb-22 @ 20:00 UTC

Feb-23@
06:00 UTC

Feb-23 @ 06:00 UTC

TEMPO 2220/2306 1200 BR BKN004

Temporary

TemporaryChanges expected for less than half the time period

Conditions
Mist
Cloud Levels
  • Broken at 400' AGL